This is the latest recevied weather packets stored in our database for station/object SP6TSE-13. If no packets are shown the sender has not sent any weather packets the latest 10 day(s).
| Time | Temp. | Humidity | Pressure | Rain* | Wind** | Luminosity | Snow |
|---|---|---|---|---|---|---|---|
| 1777806175 | 25.56° C | 22% | 991.5 hPa | - | - | 0 W/m² | - |
| 1777794775 | 21.67° C | 32% | 992.3 hPa | - | - | 0 W/m² | - |
| 1777788175 | 15° C | 44% | 992.3 hPa | - | - | 0 W/m² | - |
| 1777784575 | 15° C | 44% | 992.3 hPa | - | - | 0 W/m² | - |
| 1777783975 | 15° C | 44% | 992.3 hPa | - | - | 0 W/m² | - |
| 1777782775 | 12.22° C | 51% | 992.3 hPa | - | - | 0 W/m² | - |
| 1777771375 | 11.11° C | 53% | 992.9 hPa | - | - | 0 W/m² | - |
| 1777770775 | - | - | - | - | - | - | - |
| 1777770175 | - | - | - | - | - | - | - |
| 1777755775 | 17.78° C | 37% | 994.4 hPa | - | - | 0 W/m² | - |
| 1777747375 | 18.89° C | 35% | 994.4 hPa | - | - | 0 W/m² | - |
| 1777746775 | 18.89° C | 35% | 994.4 hPa | - | - | 0 W/m² | - |
| 1777746175 | 18.89° C | 35% | 994.4 hPa | - | - | 0 W/m² | - |
| 1777743775 | 20° C | 36% | 994.2 hPa | - | - | 0 W/m² | - |
| 1777738975 | 24.44° C | 29% | 995.1 hPa | - | - | 0 W/m² | - |
| 1777733575 | 25.56° C | 27% | 996.2 hPa | - | - | 0 W/m² | - |
| 1777732375 | 25.56° C | 24% | 996.6 hPa | - | - | 0 W/m² | - |
| 1777728175 | 23.89° C | 27% | 997.7 hPa | - | - | 0 W/m² | - |
| 1777726975 | 23.89° C | 27% | 997.7 hPa | - | - | 0 W/m² | - |
| 1777721575 | 23.89° C | 27% | 998.8 hPa | - | - | 0 W/m² | - |
| 1777720375 | 22.78° C | 27% | 999.2 hPa | - | - | 0 W/m² | - |
| 1777715575 | 22.78° C | 29% | 1000.1 hPa | - | - | 0 W/m² | - |
| 1777711975 | 23.33° C | 30% | 1000.4 hPa | - | - | 0 W/m² | - |
| 1777707175 | 13.33° C | 65% | 1000.7 hPa | - | - | 0 W/m² | - |
| 1777705375 | 13.33° C | 65% | 1000.7 hPa | - | - | 0 W/m² | - |
* Rain since midnight (hover to see other rain measurements)
** Current wind speed in m/s (hover to see current wind gust speed)